CheckWX is a tool to help pilots better visualize weather data.  It is not intended as a substitute for an official pre-flight weather briefing.

11:54:09 UTC

KDIK METAR
Dickinson - Theodore Roosevelt Regional Airport
Dickinson, North Dakota, USA
Current

58 mins ago

KDIK 241056Z AUTO 12011KT 10SM BKN075 OVC090 M01/M05 A2980 RMK AO2 SLP113 T10111050
Observed
Feb-24 @ 10:56 UTC
Wind
  • 120° at 11 KTS
Visibility
10 SM
Flight Rules
VFR
Cloud Levels
  • Broken at 7,500' AGL
  • Overcast at 9,000' AGL
Temperature
-1°C / 30°F
Dewpoint
-5°C / 23°F
Humidity
75%
Altimeter
29.8" Hg
Pressure
1009.12 hPa
Previous

2 hours ago

KDIK 240956Z AUTO 11008KT 10SM BKN070 OVC090 M02/M05 A2980 RMK AO2 SLP112 T10171050
Observed
Feb-24 @ 09:56 UTC
Wind
  • 110° at 8 KTS
Visibility
10 SM
Flight Rules
VFR
Cloud Levels
  • Broken at 7,000' AGL
  • Overcast at 9,000' AGL
Temperature
-2°C / 28°F
Dewpoint
-5°C / 23°F
Humidity
80%
Altimeter
29.8" Hg
Pressure
1009.12 hPa
Previous

3 hours ago

KDIK 240856Z AUTO 11009KT 10SM BKN070 M02/M06 A2981 RMK AO2 SLP117 T10171061 58016
Observed
Feb-24 @ 08:56 UTC
Wind
  • 110° at 9 KTS
Visibility
10 SM
Flight Rules
VFR
Cloud Levels
  • Broken at 7,000' AGL
Temperature
-2°C / 28°F
Dewpoint
-6°C / 21°F
Humidity
74%
Altimeter
29.81" Hg
Pressure
1009.52 hPa